CYBN weather

CFB Borden
Borden, Ontario, Canada

Public forecast

Using degrees Celsius for public forecast. Weather courtesy of forecast.io.

METAR (pilot weather report)

Retrieved 2019/05/19 14:37 UTC (21 minutes ago):

CYBN 191437Z AUTO 10006KT 080V250 9SM -RA FEW033 FEW047 FEW062 FEW070 17/09 A2982

TAF (pilot weather forecast)

Forecast is more than 12 hours old.

Retrieved 2019/05/17 18:33 UTC (2 days ago):

TAF TAF CYBN 171730Z 1718/1806 33010G20KT P6SM OVC020 TEMPO 1718/1720 33020KT SCT020 BKN030 FM172000 33015G25KT P6SM SCT030 TEMPO 1720/1724 33020KT BKN030 BECMG 1800/1802 32010KT RMK FCST BASED ON AUTO OBS. NXT FCST BY 180000Z